Terminal Aerodrome Forecast
Issued by NWS

Home | Current Version | Previous Version | Text Only | Print | Product List | Glossary On
Versions: 1 2 3 4 5 6 7 8 9 10 11 12 13 14 15 16
000
FTUS42 KRAH 032323
TAFINT
TAF
KINT 032323Z 0400/0424 VRB03KT P6SM OVC080
     FM041100 05004KT P6SM -RA OVC050
     FM041400 08005KT 5SM -RA BR OVC025
     FM042100 11004KT 3SM RA BR OVC010=

USA.gov is the U.S. government's official web portal to all federal, state and local government web resources and services.